createdAt,value
2023-02-22T00:00:48.344Z,10.96
2023-02-22T00:03:27.140Z,10.93
2023-02-22T00:05:59.788Z,10.93
2023-02-22T00:08:32.248Z,10.93
2023-02-22T00:11:03.851Z,10.93
2023-02-22T00:13:30.938Z,10.93
2023-02-22T00:16:00.057Z,10.93
2023-02-22T00:18:28.831Z,10.93
2023-02-22T00:21:01.024Z,10.93
2023-02-22T00:23:31.010Z,10.95
2023-02-22T00:25:59.612Z,10.94
2023-02-22T00:28:26.663Z,10.93
2023-02-22T00:30:54.756Z,10.93
2023-02-22T00:33:22.019Z,10.93
2023-02-22T00:35:49.310Z,10.91
2023-02-22T00:38:18.581Z,10.90
2023-02-22T00:40:45.529Z,10.90
2023-02-22T00:43:12.841Z,10.90
2023-02-22T00:45:41.782Z,10.91
2023-02-22T00:48:09.308Z,10.92
2023-02-22T00:50:36.655Z,10.92
2023-02-22T00:53:05.108Z,10.92
2023-02-22T00:55:35.225Z,10.91
2023-02-22T00:58:02.225Z,10.92
2023-02-22T01:00:32.161Z,10.92
2023-02-22T01:02:59.419Z,10.92
2023-02-22T01:05:29.099Z,10.91
2023-02-22T01:07:57.089Z,10.90
2023-02-22T01:10:26.000Z,10.89
2023-02-22T01:12:54.475Z,10.91
2023-02-22T01:15:23.543Z,10.88
2023-02-22T01:17:53.460Z,10.90
2023-02-22T01:20:26.017Z,10.88
2023-02-22T01:22:55.377Z,10.88
2023-02-22T01:25:28.334Z,10.89
2023-02-22T01:27:56.491Z,10.88
2023-02-22T01:30:29.002Z,10.88
2023-02-22T01:32:57.308Z,10.87
2023-02-22T01:35:28.321Z,10.86
2023-02-22T01:37:56.235Z,10.88
2023-02-22T01:40:30.042Z,10.88
2023-02-22T01:43:00.267Z,10.86
2023-02-22T01:45:32.833Z,10.88
2023-02-22T01:48:16.165Z,10.88
2023-02-22T01:50:54.047Z,10.86
2023-02-22T01:53:25.143Z,10.86
2023-02-22T01:55:53.328Z,10.87
2023-02-22T01:58:23.189Z,10.85
2023-02-22T02:00:49.941Z,10.84
2023-02-22T02:03:27.424Z,10.84
2023-02-22T02:05:58.922Z,10.85
2023-02-22T02:08:51.608Z,10.85
2023-02-22T02:11:21.382Z,10.85
2023-02-22T02:13:52.021Z,10.84
2023-02-22T02:16:19.147Z,10.84
2023-02-22T02:18:46.048Z,10.84
2023-02-22T02:21:28.764Z,10.85
2023-02-22T02:23:59.574Z,10.84
2023-02-22T02:26:29.215Z,10.84
2023-02-22T02:29:23.206Z,10.83
2023-02-22T02:31:55.997Z,10.85
2023-02-22T02:34:37.517Z,10.85
2023-02-22T02:37:14.305Z,10.83
2023-02-22T02:40:06.869Z,10.84
2023-02-22T02:42:40.736Z,10.83
2023-02-22T02:45:14.023Z,10.83
2023-02-22T02:47:45.895Z,10.81
2023-02-22T02:50:33.828Z,10.81
2023-02-22T02:53:04.731Z,10.83
2023-02-22T02:55:32.969Z,10.83
2023-02-22T02:58:00.297Z,10.81
2023-02-22T03:00:39.151Z,10.80
2023-02-22T03:03:22.374Z,10.80
2023-02-22T03:06:16.530Z,10.81
2023-02-22T03:08:50.620Z,10.79
2023-02-22T03:11:25.096Z,10.80
2023-02-22T03:14:18.019Z,10.80
2023-02-22T03:17:06.087Z,10.77
2023-02-22T03:19:39.873Z,10.79
2023-02-22T03:22:20.199Z,10.77
2023-02-22T03:24:56.032Z,10.77
2023-02-22T03:27:34.859Z,10.79
2023-02-22T03:30:24.146Z,10.77
2023-02-22T03:32:57.452Z,10.78
2023-02-22T03:35:31.209Z,10.76
2023-02-22T03:38:02.840Z,10.76
2023-02-22T03:40:43.332Z,10.76
2023-02-22T03:43:18.891Z,10.76
2023-02-22T03:45:50.593Z,10.76
2023-02-22T03:48:57.713Z,10.75
2023-02-22T03:51:43.069Z,10.75
2023-02-22T03:54:16.466Z,10.79
2023-02-22T03:56:54.002Z,10.98
2023-02-22T03:59:25.340Z,10.84
2023-02-22T04:01:55.913Z,10.78
2023-02-22T04:04:24.592Z,10.75
2023-02-22T04:06:53.642Z,10.74
2023-02-22T04:09:21.409Z,10.74
2023-02-22T04:11:48.871Z,10.70
2023-02-22T04:14:16.225Z,10.70
2023-02-22T04:16:43.182Z,10.70
2023-02-22T04:19:10.739Z,10.69
2023-02-22T04:21:38.911Z,10.67
2023-02-22T04:24:09.225Z,10.67
2023-02-22T04:26:36.028Z,10.65
2023-02-22T04:29:04.450Z,10.63
2023-02-22T04:31:37.362Z,10.66
2023-02-22T04:34:04.641Z,10.66
2023-02-22T04:36:34.838Z,10.61
2023-02-22T04:39:02.075Z,10.61
2023-02-22T04:41:31.521Z,10.62
2023-02-22T04:43:58.329Z,10.62
2023-02-22T04:46:26.574Z,10.58
2023-02-22T04:48:54.376Z,10.60
2023-02-22T04:51:24.771Z,10.61
2023-02-22T04:53:59.070Z,10.60
2023-02-22T04:56:26.232Z,10.59
2023-02-22T04:58:53.061Z,10.58
2023-02-22T05:01:19.986Z,10.58
2023-02-22T05:03:47.487Z,10.58
2023-02-22T05:06:14.168Z,10.57
2023-02-22T05:08:40.997Z,10.55
2023-02-22T05:11:08.158Z,10.55
2023-02-22T05:13:34.911Z,10.53
2023-02-22T05:16:02.655Z,10.54
2023-02-22T05:18:29.771Z,10.54
2023-02-22T05:20:56.767Z,10.52
2023-02-22T05:23:23.611Z,10.53
2023-02-22T05:25:50.334Z,10.50
2023-02-22T05:28:17.207Z,10.49
2023-02-22T05:30:43.918Z,10.50
2023-02-22T05:33:10.784Z,10.48
2023-02-22T05:35:37.694Z,10.47
2023-02-22T05:38:05.548Z,10.47
2023-02-22T05:40:32.781Z,10.46
2023-02-22T05:43:00.862Z,10.45
2023-02-22T05:45:28.645Z,10.44
2023-02-22T05:47:56.888Z,10.42
2023-02-22T05:50:24.608Z,10.44
2023-02-22T05:52:52.819Z,10.43
2023-02-22T05:55:21.699Z,10.44
2023-02-22T05:57:48.478Z,10.43
2023-02-22T06:00:23.241Z,10.40
2023-02-22T06:03:10.110Z,10.38
2023-02-22T06:05:39.983Z,10.38
2023-02-22T06:08:07.583Z,10.39
2023-02-22T06:10:34.796Z,10.38
2023-02-22T06:13:02.368Z,10.36
2023-02-22T06:15:29.394Z,10.38
2023-02-22T06:17:57.892Z,10.37
2023-02-22T06:20:26.323Z,10.38
2023-02-22T06:22:55.185Z,10.36
2023-02-22T06:25:24.464Z,10.34
2023-02-22T06:27:51.302Z,10.33
2023-02-22T06:30:21.275Z,10.35
2023-02-22T06:32:48.211Z,10.34
2023-02-22T06:35:15.927Z,10.32
2023-02-22T06:37:42.616Z,10.33
2023-02-22T06:40:11.266Z,10.34
2023-02-22T06:42:39.163Z,10.32
2023-02-22T06:45:05.975Z,10.33
2023-02-22T06:47:32.668Z,10.30
2023-02-22T06:50:01.053Z,10.30
2023-02-22T06:52:27.745Z,10.30
2023-02-22T06:54:54.500Z,10.31
2023-02-22T06:57:21.274Z,10.29
2023-02-22T06:59:47.879Z,10.26
2023-02-22T07:02:15.065Z,10.29
2023-02-22T07:04:43.564Z,10.27
2023-02-22T07:07:10.684Z,10.27
2023-02-22T07:09:37.547Z,10.26
2023-02-22T07:12:05.652Z,10.27
2023-02-22T07:14:49.698Z,10.24
2023-02-22T07:17:16.600Z,10.21
2023-02-22T07:19:43.415Z,10.26
2023-02-22T07:22:10.252Z,10.20
2023-02-22T07:24:37.101Z,10.24
2023-02-22T07:27:04.063Z,10.22
2023-02-22T07:29:31.500Z,10.22
2023-02-22T07:31:58.650Z,10.22
2023-02-22T07:34:25.425Z,10.22
2023-02-22T07:36:52.213Z,10.23
2023-02-22T07:39:19.046Z,10.23
2023-02-22T07:41:45.891Z,10.21
2023-02-22T07:44:22.414Z,10.23
2023-02-22T07:46:50.456Z,10.21
2023-02-22T07:49:17.425Z,10.22
2023-02-22T07:51:44.334Z,10.21
2023-02-22T07:54:11.212Z,10.22
2023-02-22T07:56:38.058Z,10.20
2023-02-22T07:59:04.890Z,10.21
2023-02-22T08:01:31.957Z,10.19
2023-02-22T08:03:58.692Z,10.21
2023-02-22T08:06:25.963Z,10.21
2023-02-22T08:08:52.815Z,10.21
2023-02-22T08:11:19.609Z,10.23
2023-02-22T08:13:46.400Z,10.20
2023-02-22T08:16:13.186Z,10.21
2023-02-22T08:18:41.143Z,10.20
2023-02-22T08:21:07.799Z,10.20
2023-02-22T08:23:34.610Z,10.20
2023-02-22T08:26:10.980Z,10.20
2023-02-22T08:28:37.600Z,10.19
2023-02-22T08:31:07.797Z,10.21
2023-02-22T08:33:35.512Z,10.19
2023-02-22T08:36:02.426Z,10.20
2023-02-22T08:38:31.290Z,10.19
2023-02-22T08:40:58.131Z,10.19
2023-02-22T08:43:24.870Z,10.21
2023-02-22T08:45:52.647Z,10.22
2023-02-22T08:48:19.972Z,10.21
2023-02-22T08:50:47.031Z,10.21
2023-02-22T08:53:15.520Z,10.21
2023-02-22T08:55:42.494Z,10.21
2023-02-22T08:58:09.853Z,10.20
2023-02-22T09:00:39.123Z,10.21
2023-02-22T09:03:13.396Z,10.21
2023-02-22T09:05:41.283Z,10.22
2023-02-22T09:08:07.924Z,10.20
2023-02-22T09:10:35.780Z,10.20
2023-02-22T09:13:04.053Z,10.21
2023-02-22T09:15:32.346Z,10.22
2023-02-22T09:17:59.691Z,10.21
2023-02-22T09:20:27.124Z,10.22
2023-02-22T09:22:55.169Z,10.20
2023-02-22T09:25:23.276Z,10.21
2023-02-22T09:27:52.316Z,10.22
2023-02-22T09:30:39.821Z,10.22
2023-02-22T09:33:10.319Z,10.22
2023-02-22T09:35:42.280Z,10.23
2023-02-22T09:38:10.416Z,10.23
2023-02-22T09:40:45.014Z,10.23
2023-02-22T09:43:33.925Z,10.24
2023-02-22T09:46:21.564Z,10.24
2023-02-22T09:48:51.205Z,10.24
2023-02-22T09:51:20.927Z,10.25
2023-02-22T09:53:52.284Z,10.25
2023-02-22T09:56:20.756Z,10.25
2023-02-22T09:58:52.249Z,10.25
2023-02-22T10:01:29.895Z,10.24
2023-02-22T10:04:04.127Z,10.24
2023-02-22T10:06:33.848Z,10.24
2023-02-22T10:09:07.802Z,10.24
2023-02-22T10:11:41.206Z,10.25
2023-02-22T10:14:31.345Z,10.23
2023-02-22T10:17:14.394Z,10.25
2023-02-22T10:19:47.496Z,10.25
2023-02-22T10:22:35.418Z,10.27
2023-02-22T10:25:12.890Z,10.26
2023-02-22T10:28:03.703Z,10.26
2023-02-22T10:30:35.358Z,10.26
2023-02-22T10:33:13.670Z,10.27
2023-02-22T10:35:41.370Z,10.29
2023-02-22T10:38:20.101Z,10.31
2023-02-22T10:40:54.758Z,10.31
2023-02-22T10:43:23.479Z,10.30
2023-02-22T10:45:56.015Z,10.32
2023-02-22T10:48:26.380Z,10.32
2023-02-22T10:50:59.107Z,10.33
2023-02-22T10:53:27.784Z,10.33
2023-02-22T10:56:13.146Z,10.34
2023-02-22T10:58:47.512Z,10.34
2023-02-22T11:01:22.767Z,10.36
2023-02-22T11:04:09.156Z,10.34
2023-02-22T11:06:37.949Z,10.35
2023-02-22T11:09:17.960Z,10.39
2023-02-22T11:11:47.792Z,10.39
2023-02-22T11:14:27.567Z,10.39
2023-02-22T11:16:58.757Z,10.40
2023-02-22T11:19:28.189Z,10.40
2023-02-22T11:22:09.942Z,10.42
2023-02-22T11:24:50.724Z,10.43
2023-02-22T11:27:56.160Z,10.43
2023-02-22T11:30:29.080Z,10.45
2023-02-22T11:32:59.532Z,10.44
2023-02-22T11:35:28.944Z,10.46
2023-02-22T11:38:12.181Z,10.46
2023-02-22T11:40:40.263Z,10.47
2023-02-22T11:43:18.048Z,10.47
2023-02-22T11:46:02.000Z,10.50
2023-02-22T11:48:36.595Z,10.51
2023-02-22T11:51:14.987Z,10.55
2023-02-22T11:53:52.041Z,10.54
2023-02-22T11:56:38.017Z,10.55
2023-02-22T11:59:26.387Z,10.54
2023-02-22T12:02:19.200Z,10.56
2023-02-22T12:05:10.708Z,10.58
2023-02-22T12:07:50.638Z,10.61
2023-02-22T12:10:41.235Z,10.62
2023-02-22T12:13:40.251Z,10.62
2023-02-22T12:16:44.471Z,10.62
2023-02-22T12:19:26.968Z,10.63
2023-02-22T12:21:58.471Z,10.65
2023-02-22T12:24:30.643Z,10.67
2023-02-22T12:27:05.737Z,10.71
2023-02-22T12:29:39.359Z,10.70
2023-02-22T12:32:19.881Z,10.69
2023-02-22T12:34:55.309Z,10.68
2023-02-22T12:37:44.108Z,10.68
2023-02-22T12:40:17.009Z,10.69
2023-02-22T12:42:55.740Z,10.70
2023-02-22T12:45:44.828Z,10.70
2023-02-22T12:48:32.190Z,10.70
2023-02-22T12:51:36.264Z,10.72
2023-02-22T12:54:41.966Z,10.70
2023-02-22T12:57:17.083Z,10.69
2023-02-22T13:00:02.832Z,10.67
2023-02-22T13:02:43.397Z,10.68
2023-02-22T13:05:20.786Z,10.69
2023-02-22T13:08:13.736Z,10.69
2023-02-22T13:10:52.319Z,10.68
2023-02-22T13:13:45.585Z,10.68
2023-02-22T13:16:28.425Z,10.70
2023-02-22T13:19:14.547Z,10.68
2023-02-22T13:22:03.740Z,10.72
2023-02-22T13:24:49.375Z,10.68
2023-02-22T13:27:22.990Z,10.69
2023-02-22T13:29:57.451Z,10.72
2023-02-22T13:32:33.696Z,10.70
2023-02-22T13:35:29.318Z,10.71
2023-02-22T13:38:00.532Z,10.73
2023-02-22T13:40:56.472Z,10.74
2023-02-22T13:44:04.399Z,10.73
2023-02-22T13:46:49.169Z,10.73
2023-02-22T13:49:34.032Z,10.72
2023-02-22T13:52:12.329Z,10.73
2023-02-22T13:54:46.698Z,10.75
2023-02-22T13:57:28.404Z,10.75
2023-02-22T14:00:20.939Z,10.77
2023-02-22T14:03:02.698Z,10.77
2023-02-22T14:05:41.613Z,10.78
2023-02-22T14:08:08.425Z,10.77
2023-02-22T14:10:40.251Z,10.76
2023-02-22T14:13:08.084Z,10.78
2023-02-22T14:15:35.668Z,10.78
2023-02-22T14:18:04.842Z,10.77
2023-02-22T14:20:37.045Z,10.77
2023-02-22T14:23:42.002Z,10.79
2023-02-22T14:26:11.768Z,10.78
2023-02-22T14:28:41.336Z,10.77
2023-02-22T14:31:10.221Z,10.78
2023-02-22T14:34:13.997Z,10.81
2023-02-22T14:37:04.504Z,10.81
2023-02-22T14:39:51.922Z,10.80
2023-02-22T14:42:27.764Z,10.80
2023-02-22T14:45:12.191Z,10.79
2023-02-22T14:47:49.613Z,10.80
2023-02-22T14:50:34.716Z,10.80
2023-02-22T14:53:25.319Z,10.82
2023-02-22T14:56:07.439Z,10.82
2023-02-22T14:58:58.960Z,10.81
2023-02-22T15:04:30.962Z,10.80
2023-02-22T15:07:01.053Z,10.80
2023-02-22T15:09:34.726Z,10.81
2023-02-22T15:12:05.182Z,10.80
2023-02-22T15:14:37.859Z,10.80
2023-02-22T15:17:12.634Z,10.81
2023-02-22T15:19:42.308Z,10.81
2023-02-22T15:22:21.171Z,10.81
2023-02-22T15:25:00.813Z,10.82
2023-02-22T15:27:28.538Z,10.82
2023-02-22T15:30:06.525Z,10.81
2023-02-22T15:32:53.280Z,10.81
2023-02-22T15:35:28.349Z,10.82
2023-02-22T15:38:20.059Z,10.82
2023-02-22T15:40:50.672Z,10.82
2023-02-22T15:43:24.589Z,10.81
2023-02-22T15:45:52.227Z,10.83
2023-02-22T15:48:19.329Z,10.81
2023-02-22T15:51:10.531Z,10.82
2023-02-22T15:53:45.131Z,10.80
2023-02-22T15:56:18.417Z,10.81
2023-02-22T15:58:47.527Z,10.83
2023-02-22T16:01:18.942Z,10.84
2023-02-22T16:03:56.054Z,10.82
2023-02-22T16:06:33.409Z,10.82
2023-02-22T16:09:06.876Z,10.82
2023-02-22T16:11:39.835Z,10.81
2023-02-22T16:14:24.735Z,10.80
2023-02-22T16:17:35.460Z,10.81
2023-02-22T16:20:22.132Z,10.81
2023-02-22T16:22:49.925Z,10.81
2023-02-22T16:25:19.466Z,10.82
2023-02-22T16:27:50.265Z,10.83
2023-02-22T16:30:37.501Z,10.83
2023-02-22T16:33:10.009Z,10.81
2023-02-22T16:35:36.806Z,10.82
2023-02-22T16:38:07.497Z,10.81
2023-02-22T16:40:39.870Z,10.81
2023-02-22T16:43:11.680Z,10.83
2023-02-22T16:45:39.681Z,10.82
2023-02-22T16:48:19.687Z,10.83
2023-02-22T16:50:48.489Z,10.82
2023-02-22T16:53:20.033Z,10.81
2023-02-22T16:55:57.467Z,10.82
2023-02-22T16:58:27.958Z,10.81
2023-02-22T17:00:57.565Z,10.82
2023-02-22T17:03:25.800Z,10.80
2023-02-22T17:05:53.245Z,10.82
2023-02-22T17:08:20.048Z,10.82
2023-02-22T17:10:46.958Z,10.83
2023-02-22T17:13:22.957Z,10.81
2023-02-22T17:15:51.016Z,10.80
2023-02-22T17:18:22.817Z,10.80
2023-02-22T17:20:51.520Z,10.81
2023-02-22T17:23:19.507Z,10.80
2023-02-22T17:25:53.570Z,10.80
2023-02-22T17:28:24.594Z,10.81
2023-02-22T17:30:52.933Z,10.80
2023-02-22T17:33:26.585Z,10.81
2023-02-22T17:35:55.300Z,10.81
2023-02-22T17:38:22.868Z,10.81
2023-02-22T17:40:52.018Z,10.79
2023-02-22T17:43:19.474Z,10.80
2023-02-22T17:45:46.998Z,10.78
2023-02-22T17:48:16.247Z,10.80
2023-02-22T17:50:44.456Z,10.81
2023-02-22T17:53:11.259Z,10.82
2023-02-22T17:55:40.585Z,10.80
2023-02-22T17:58:08.094Z,10.80
2023-02-22T18:00:37.085Z,10.79
2023-02-22T18:03:09.708Z,10.79
2023-02-22T18:05:46.353Z,10.80
2023-02-22T18:08:13.940Z,10.81
2023-02-22T18:10:42.340Z,10.80
2023-02-22T18:13:12.810Z,10.80
2023-02-22T18:15:40.281Z,10.80
2023-02-22T18:18:07.228Z,10.79
2023-02-22T18:20:39.958Z,10.78
2023-02-22T18:23:08.126Z,10.80
2023-02-22T18:25:36.471Z,10.80
2023-02-22T18:28:06.381Z,10.81
2023-02-22T18:30:37.896Z,10.80
2023-02-22T18:33:04.730Z,10.80
2023-02-22T18:35:31.736Z,10.81
2023-02-22T18:37:58.455Z,10.79
2023-02-22T18:40:25.108Z,10.79
2023-02-22T18:42:51.802Z,10.78
2023-02-22T18:45:19.326Z,10.81
2023-02-22T18:47:46.055Z,10.80
2023-02-22T18:50:13.936Z,10.79
2023-02-22T18:52:46.551Z,10.78
2023-02-22T18:55:18.882Z,10.79
2023-02-22T18:57:46.603Z,10.78
2023-02-22T19:00:16.743Z,10.79
2023-02-22T19:02:43.579Z,10.79
2023-02-22T19:05:12.067Z,10.80
2023-02-22T19:07:39.589Z,10.79
2023-02-22T19:10:07.533Z,10.77
2023-02-22T19:12:34.282Z,10.79
2023-02-22T19:15:01.660Z,10.78
2023-02-22T19:17:31.065Z,10.79
2023-02-22T19:19:58.058Z,10.79
2023-02-22T19:22:32.684Z,10.78
2023-02-22T19:25:01.211Z,10.78
2023-02-22T19:27:31.427Z,10.79
2023-02-22T19:29:58.504Z,10.78
2023-02-22T19:32:25.522Z,10.77
2023-02-22T19:35:02.134Z,10.78
2023-02-22T19:37:34.121Z,10.79
2023-02-22T19:40:02.551Z,10.78
2023-02-22T19:42:29.772Z,10.80
2023-02-22T19:44:56.732Z,10.81
2023-02-22T19:47:23.596Z,10.78
2023-02-22T19:49:50.666Z,10.78
2023-02-22T19:52:17.496Z,10.80
2023-02-22T19:54:44.619Z,10.79
2023-02-22T19:57:11.625Z,10.78
2023-02-22T19:59:39.049Z,10.79
2023-02-22T20:02:07.740Z,10.79
2023-02-22T20:04:37.375Z,10.78
2023-02-22T20:07:04.052Z,10.80
2023-02-22T20:09:36.571Z,10.80
2023-02-22T20:12:04.841Z,10.78
2023-02-22T20:14:31.600Z,10.79
2023-02-22T20:16:58.839Z,10.79
2023-02-22T20:19:26.821Z,10.80
2023-02-22T20:21:58.192Z,10.78
2023-02-22T20:24:25.684Z,10.78
2023-02-22T20:26:57.293Z,10.80
2023-02-22T20:29:29.634Z,10.78
2023-02-22T20:31:58.448Z,11.18
2023-02-22T20:34:31.803Z,11.57
2023-02-22T20:36:59.165Z,11.85
2023-02-22T20:39:25.927Z,12.13
2023-02-22T20:41:54.499Z,12.36
2023-02-22T20:44:21.830Z,12.43
2023-02-22T20:46:49.101Z,12.57
2023-02-22T20:49:18.776Z,12.59
2023-02-22T20:51:48.445Z,12.47
2023-02-22T20:54:16.218Z,12.17
2023-02-22T20:56:45.019Z,11.94
2023-02-22T20:59:14.197Z,11.83
2023-02-22T21:01:42.153Z,11.75
2023-02-22T21:04:10.344Z,11.65
2023-02-22T21:06:39.476Z,11.64
2023-02-22T21:09:11.612Z,11.63
2023-02-22T21:11:40.039Z,11.56
2023-02-22T21:14:06.741Z,11.54
2023-02-22T21:16:36.485Z,11.53
2023-02-22T21:19:06.474Z,11.49
2023-02-22T21:21:33.918Z,11.46
2023-02-22T21:24:01.765Z,11.45
2023-02-22T21:26:31.589Z,11.41
2023-02-22T21:29:00.693Z,11.40
2023-02-22T21:31:28.391Z,11.38
2023-02-22T21:33:57.742Z,11.35
2023-02-22T21:36:25.830Z,11.33
2023-02-22T21:39:01.128Z,11.31
2023-02-22T21:41:30.967Z,11.30
2023-02-22T21:43:59.087Z,11.29
2023-02-22T21:46:29.146Z,11.29
2023-02-22T21:48:58.578Z,11.27
2023-02-22T21:51:31.516Z,11.26
2023-02-22T21:54:03.375Z,11.26
2023-02-22T21:56:32.426Z,11.24
2023-02-22T21:59:02.997Z,11.23
2023-02-22T22:01:32.739Z,11.21
2023-02-22T22:04:01.718Z,11.22
2023-02-22T22:06:30.242Z,11.20
2023-02-22T22:08:59.837Z,11.20
2023-02-22T22:11:26.773Z,11.17
2023-02-22T22:13:57.639Z,11.16
2023-02-22T22:16:27.241Z,11.16
2023-02-22T22:18:54.836Z,11.16
2023-02-22T22:21:24.370Z,11.15
2023-02-22T22:23:55.086Z,11.15
2023-02-22T22:26:24.721Z,11.15
2023-02-22T22:28:58.214Z,11.16
2023-02-22T22:31:26.466Z,11.16
2023-02-22T22:33:56.387Z,11.16
2023-02-22T22:36:24.864Z,11.16
2023-02-22T22:38:52.897Z,11.16
2023-02-22T22:41:21.596Z,11.15
2023-02-22T22:43:48.368Z,11.14
2023-02-22T22:46:17.645Z,11.15
2023-02-22T22:48:47.058Z,11.16
2023-02-22T22:51:18.547Z,11.15
2023-02-22T22:53:47.316Z,11.14
2023-02-22T22:56:20.147Z,11.14
2023-02-22T22:58:51.849Z,11.14
2023-02-22T23:01:26.788Z,11.15
2023-02-22T23:03:59.799Z,11.13
2023-02-22T23:06:44.378Z,11.14
2023-02-22T23:09:25.564Z,11.13
2023-02-22T23:11:56.572Z,11.14
2023-02-22T23:14:26.956Z,11.14
2023-02-22T23:17:03.095Z,11.14
2023-02-22T23:19:36.757Z,11.12
2023-02-22T23:22:07.919Z,11.13
2023-02-22T23:24:36.424Z,11.13
2023-02-22T23:27:07.217Z,11.14
2023-02-22T23:29:38.120Z,11.12
2023-02-22T23:32:08.876Z,11.13
2023-02-22T23:34:36.989Z,11.13
2023-02-22T23:37:03.746Z,11.13
2023-02-22T23:39:30.483Z,11.13
2023-02-22T23:41:59.421Z,11.13
2023-02-22T23:44:27.527Z,11.13
2023-02-22T23:46:55.261Z,11.12
2023-02-22T23:49:25.085Z,11.11
2023-02-22T23:51:52.610Z,11.11
2023-02-22T23:54:20.923Z,11.12
2023-02-22T23:56:56.415Z,11.11
2023-02-22T23:59:25.488Z,11.11
